createdAt,value
2022-10-12T00:00:51.353Z,8.60
2022-10-12T00:03:19.903Z,8.70
2022-10-12T00:05:48.302Z,8.70
2022-10-12T00:08:16.259Z,8.60
2022-10-12T00:10:44.950Z,8.60
2022-10-12T00:13:12.924Z,8.60
2022-10-12T00:15:41.524Z,8.40
2022-10-12T00:18:10.870Z,8.50
2022-10-12T00:20:40.060Z,8.20
2022-10-12T00:23:08.481Z,8.30
2022-10-12T00:25:38.481Z,8.20
2022-10-12T00:28:07.315Z,8.30
2022-10-12T00:30:35.849Z,8.40
2022-10-12T00:33:03.793Z,8.40
2022-10-12T00:35:33.095Z,8.20
2022-10-12T00:38:01.030Z,8.20
2022-10-12T00:40:29.171Z,8.20
2022-10-12T00:42:57.143Z,8.40
2022-10-12T00:45:26.743Z,8.40
2022-10-12T00:47:58.219Z,8.40
2022-10-12T00:50:28.652Z,8.30
2022-10-12T00:53:03.654Z,8.30
2022-10-12T00:55:35.667Z,8.20
2022-10-12T00:58:05.503Z,8.20
2022-10-12T01:00:33.513Z,8.30
2022-10-12T01:03:01.962Z,8.40
2022-10-12T01:05:30.034Z,8.20
2022-10-12T01:08:00.670Z,8.10
2022-10-12T01:10:28.758Z,8.10
2022-10-12T01:12:56.671Z,8.00
2022-10-12T01:15:30.215Z,8.00
2022-10-12T01:18:07.376Z,8.00
2022-10-12T01:20:46.733Z,7.80
2022-10-12T01:23:48.111Z,7.70
2022-10-12T01:26:47.051Z,7.70
2022-10-12T01:29:32.095Z,7.60
2022-10-12T01:32:09.871Z,7.70
2022-10-12T01:34:46.347Z,7.80
2022-10-12T01:37:21.910Z,7.70
2022-10-12T01:39:53.747Z,7.70
2022-10-12T01:42:26.562Z,7.70
2022-10-12T01:45:03.331Z,7.60
2022-10-12T01:47:33.775Z,7.60
2022-10-12T01:50:02.899Z,7.70
2022-10-12T01:52:32.931Z,7.70
2022-10-12T01:55:24.489Z,7.70
2022-10-12T01:58:11.122Z,7.70
2022-10-12T02:00:44.522Z,7.60
2022-10-12T02:03:20.735Z,7.70
2022-10-12T02:05:54.543Z,7.60
2022-10-12T02:08:27.417Z,7.70
2022-10-12T02:10:59.698Z,7.70
2022-10-12T02:13:32.647Z,7.70
2022-10-12T02:16:03.168Z,7.60
2022-10-12T02:18:36.411Z,7.60
2022-10-12T02:21:05.445Z,7.40
2022-10-12T02:23:35.060Z,7.30
2022-10-12T02:26:04.113Z,7.30
2022-10-12T02:28:35.596Z,7.20
2022-10-12T02:31:10.761Z,7.20
2022-10-12T02:33:46.363Z,7.10
2022-10-12T02:36:19.284Z,7.00
2022-10-12T02:38:53.808Z,7.00
2022-10-12T02:41:29.854Z,7.20
2022-10-12T02:44:01.372Z,7.20
2022-10-12T02:46:31.114Z,7.10
2022-10-12T02:49:01.799Z,7.10
2022-10-12T02:51:30.898Z,7.20
2022-10-12T02:53:59.198Z,7.10
2022-10-12T02:56:27.564Z,7.10
2022-10-12T02:58:55.618Z,7.20
2022-10-12T03:01:23.865Z,7.20
2022-10-12T03:03:51.948Z,7.10
2022-10-12T03:06:21.460Z,7.20
2022-10-12T03:08:49.402Z,7.20
2022-10-12T03:11:17.551Z,7.30
2022-10-12T03:13:45.503Z,7.20
2022-10-12T03:16:13.631Z,7.30
2022-10-12T03:18:41.660Z,7.30
2022-10-12T03:21:10.825Z,7.20
2022-10-12T03:23:40.670Z,7.00
2022-10-12T03:26:09.200Z,7.00
2022-10-12T03:28:37.390Z,7.00
2022-10-12T03:31:05.927Z,6.80
2022-10-12T03:33:33.907Z,6.80
2022-10-12T03:36:02.019Z,7.00
2022-10-12T03:38:30.184Z,7.00
2022-10-12T03:41:04.184Z,6.80
2022-10-12T03:43:35.772Z,6.90
2022-10-12T03:46:03.819Z,7.10
2022-10-12T03:48:31.842Z,7.20
2022-10-12T03:50:59.924Z,7.30
2022-10-12T03:53:27.971Z,7.30
2022-10-12T03:55:55.941Z,7.30
2022-10-12T03:58:25.333Z,7.30
2022-10-12T04:00:54.127Z,7.40
2022-10-12T04:03:22.855Z,7.40
2022-10-12T04:05:54.973Z,7.50
2022-10-12T04:08:23.322Z,7.50
2022-10-12T04:10:51.481Z,7.50
2022-10-12T04:13:24.086Z,7.60
2022-10-12T04:15:53.532Z,7.60
2022-10-12T04:18:21.553Z,7.60
2022-10-12T04:20:50.081Z,7.40
2022-10-12T04:23:18.119Z,7.40
2022-10-12T04:25:46.195Z,7.50
2022-10-12T04:28:14.392Z,7.50
2022-10-12T04:30:42.456Z,7.50
2022-10-12T04:33:11.811Z,7.40
2022-10-12T04:35:39.947Z,7.50
2022-10-12T04:38:07.942Z,7.40
2022-10-12T04:40:36.064Z,7.30
2022-10-12T04:43:04.035Z,7.30
2022-10-12T04:45:32.096Z,7.40
2022-10-12T04:48:00.279Z,7.50
2022-10-12T04:50:30.290Z,7.60
2022-10-12T04:52:58.400Z,7.50
2022-10-12T04:55:26.468Z,7.50
2022-10-12T04:57:54.630Z,7.50
2022-10-12T05:00:22.717Z,7.60
2022-10-12T05:02:50.852Z,7.60
2022-10-12T05:05:18.762Z,7.70
2022-10-12T05:07:48.054Z,7.60
2022-10-12T05:10:16.119Z,7.60
2022-10-12T05:12:44.328Z,7.60
2022-10-12T05:15:13.341Z,7.60
2022-10-12T05:17:41.412Z,7.70
2022-10-12T05:20:11.156Z,7.60
2022-10-12T05:22:39.178Z,7.60
2022-10-12T05:25:10.686Z,7.50
2022-10-12T05:27:39.144Z,7.40
2022-10-12T05:30:08.947Z,7.20
2022-10-12T05:32:37.358Z,7.20
2022-10-12T05:35:05.882Z,7.20
2022-10-12T05:37:34.611Z,7.30
2022-10-12T05:40:02.699Z,7.40
2022-10-12T05:42:32.072Z,7.40
2022-10-12T05:45:00.063Z,7.40
2022-10-12T05:47:28.602Z,7.40
2022-10-12T05:49:56.733Z,7.40
2022-10-12T05:52:24.752Z,7.50
2022-10-12T05:54:52.723Z,7.50
2022-10-12T05:57:20.715Z,7.50
2022-10-12T05:59:50.100Z,7.60
2022-10-12T06:02:19.558Z,7.60
2022-10-12T06:04:47.612Z,7.60
2022-10-12T06:07:15.553Z,7.60
2022-10-12T06:09:44.714Z,7.60
2022-10-12T06:12:12.943Z,7.60
2022-10-12T06:14:40.900Z,7.60
2022-10-12T06:17:10.497Z,7.70
2022-10-12T06:19:38.465Z,7.70
2022-10-12T06:22:06.469Z,7.80
2022-10-12T06:24:34.486Z,7.80
2022-10-12T06:27:02.510Z,7.90
2022-10-12T06:29:30.456Z,7.90
2022-10-12T06:31:58.390Z,8.00
2022-10-12T06:34:27.799Z,8.00
2022-10-12T06:37:00.866Z,8.10
2022-10-12T06:39:29.746Z,8.10
2022-10-12T06:41:57.831Z,8.00
2022-10-12T06:44:25.956Z,8.20
2022-10-12T06:46:54.027Z,8.10
2022-10-12T06:49:21.966Z,8.30
2022-10-12T06:51:51.375Z,8.40
2022-10-12T06:54:19.321Z,8.30
2022-10-12T06:56:47.564Z,8.20
2022-10-12T06:59:15.730Z,8.30
2022-10-12T07:01:43.726Z,8.30
2022-10-12T07:04:11.735Z,8.40
2022-10-12T07:06:39.702Z,8.50
2022-10-12T07:09:09.159Z,8.60
2022-10-12T07:11:37.190Z,8.60
2022-10-12T07:14:05.173Z,8.60
2022-10-12T07:16:33.292Z,8.80
2022-10-12T07:19:01.460Z,8.80
2022-10-12T07:21:29.528Z,8.90
2022-10-12T07:23:57.601Z,8.90
2022-10-12T07:26:26.888Z,8.90
2022-10-12T07:28:54.933Z,9.00
2022-10-12T07:31:22.935Z,9.20
2022-10-12T07:33:51.048Z,9.30
2022-10-12T07:36:21.570Z,9.30
2022-10-12T07:38:49.991Z,9.40
2022-10-12T07:41:18.679Z,9.50
2022-10-12T07:43:48.087Z,9.60
2022-10-12T07:46:16.131Z,9.70
2022-10-12T07:48:49.095Z,9.80
2022-10-12T07:51:18.761Z,9.90
2022-10-12T07:53:47.771Z,9.90
2022-10-12T07:56:18.787Z,9.80
2022-10-12T07:58:50.972Z,10.00
2022-10-12T08:01:20.366Z,10.10
2022-10-12T08:03:48.475Z,10.10
2022-10-12T08:06:19.758Z,10.20
2022-10-12T08:08:47.930Z,10.40
2022-10-12T08:11:16.908Z,10.50
2022-10-12T08:13:46.278Z,10.30
2022-10-12T08:16:18.199Z,10.20
2022-10-12T08:18:46.461Z,10.30
2022-10-12T08:21:15.767Z,10.30
2022-10-12T08:23:45.100Z,10.40
2022-10-12T08:26:14.562Z,10.50
2022-10-12T08:28:42.973Z,10.90
2022-10-12T08:31:11.922Z,10.90
2022-10-12T08:33:41.635Z,11.00
2022-10-12T08:36:10.332Z,11.10
2022-10-12T08:38:39.357Z,11.10
2022-10-12T08:41:27.939Z,11.10
2022-10-12T08:44:17.002Z,11.00
2022-10-12T08:46:45.198Z,10.90
2022-10-12T08:49:18.110Z,10.80
2022-10-12T08:51:49.461Z,11.00
2022-10-12T08:54:23.957Z,11.10
2022-10-12T08:56:55.135Z,11.20
2022-10-12T08:59:23.331Z,11.30
2022-10-12T09:02:15.551Z,11.40
2022-10-12T09:04:54.546Z,11.50
2022-10-12T09:07:28.099Z,11.60
2022-10-12T09:10:06.892Z,11.70
2022-10-12T09:12:45.170Z,11.70
2022-10-12T09:15:17.447Z,11.60
2022-10-12T09:17:50.014Z,11.80
2022-10-12T09:20:22.394Z,11.70
2022-10-12T09:22:52.578Z,11.70
2022-10-12T09:25:25.312Z,11.80
2022-10-12T09:27:53.635Z,11.90
2022-10-12T09:30:22.332Z,12.00
2022-10-12T09:33:00.569Z,12.00
2022-10-12T09:35:29.958Z,12.00
2022-10-12T09:37:58.050Z,12.10
2022-10-12T09:40:30.914Z,12.00
2022-10-12T09:43:00.820Z,11.70
2022-10-12T09:45:31.151Z,11.60
2022-10-12T09:48:18.003Z,11.70
2022-10-12T09:50:51.437Z,11.90
2022-10-12T09:53:30.772Z,11.90
2022-10-12T09:56:02.334Z,11.80
2022-10-12T09:58:31.317Z,12.00
2022-10-12T10:01:23.985Z,12.20
2022-10-12T10:04:09.902Z,12.30
2022-10-12T10:06:41.034Z,12.60
2022-10-12T10:09:30.739Z,12.70
2022-10-12T10:12:12.200Z,12.90
2022-10-12T10:14:42.794Z,13.10
2022-10-12T10:17:15.207Z,13.10
2022-10-12T10:19:51.132Z,13.30
2022-10-12T10:22:21.767Z,13.10
2022-10-12T10:24:57.654Z,13.20
2022-10-12T10:27:36.902Z,13.10
2022-10-12T10:30:40.894Z,13.10
2022-10-12T10:33:15.991Z,13.30
2022-10-12T10:35:58.349Z,13.40
2022-10-12T10:38:28.123Z,13.50
2022-10-12T10:40:58.208Z,13.30
2022-10-12T10:43:29.609Z,13.40
2022-10-12T10:46:01.024Z,13.30
2022-10-12T10:48:31.727Z,13.50
2022-10-12T10:51:02.033Z,13.60
2022-10-12T10:53:35.132Z,13.90
2022-10-12T10:56:09.307Z,14.00
2022-10-12T10:58:42.031Z,14.20
2022-10-12T11:01:18.462Z,14.50
2022-10-12T11:03:54.981Z,14.70
2022-10-12T11:06:33.395Z,14.80
2022-10-12T11:09:06.471Z,14.60
2022-10-12T11:11:39.092Z,14.60
2022-10-12T11:14:16.336Z,14.90
2022-10-12T11:16:48.767Z,14.90
2022-10-12T11:19:25.115Z,14.70
2022-10-12T11:21:55.706Z,14.90
2022-10-12T11:24:29.487Z,15.40
2022-10-12T11:27:03.853Z,15.70
2022-10-12T11:29:31.827Z,15.70
2022-10-12T11:32:04.168Z,15.90
2022-10-12T11:34:40.312Z,15.80
2022-10-12T11:37:20.513Z,15.70
2022-10-12T11:39:53.539Z,15.10
2022-10-12T11:42:29.500Z,14.80
2022-10-12T11:45:00.281Z,14.80
2022-10-12T11:47:37.182Z,14.80
2022-10-12T11:50:08.450Z,14.80
2022-10-12T11:52:41.833Z,15.00
2022-10-12T11:55:30.027Z,15.10
2022-10-12T11:58:02.004Z,14.90
2022-10-12T12:00:35.682Z,14.60
2022-10-12T12:03:17.212Z,14.60
2022-10-12T12:05:45.220Z,14.70
2022-10-12T12:08:23.143Z,14.80
2022-10-12T12:11:06.322Z,15.00
2022-10-12T12:13:34.558Z,14.60
2022-10-12T12:16:33.710Z,14.10
2022-10-12T12:19:35.901Z,14.00
2022-10-12T12:22:48.703Z,14.20
2022-10-12T12:25:34.697Z,14.30
2022-10-12T12:28:21.222Z,14.50
2022-10-12T12:30:58.859Z,14.70
2022-10-12T12:33:30.880Z,14.70
2022-10-12T12:36:02.571Z,15.00
2022-10-12T12:38:33.041Z,15.10
2022-10-12T12:41:05.044Z,15.10
2022-10-12T12:43:40.523Z,15.10
2022-10-12T12:46:11.431Z,15.00
2022-10-12T12:48:58.263Z,15.20
2022-10-12T12:51:36.214Z,15.20
2022-10-12T12:54:07.546Z,15.20
2022-10-12T12:56:43.277Z,15.30
2022-10-12T12:59:46.535Z,15.20
2022-10-12T13:02:49.245Z,15.00
2022-10-12T13:06:02.912Z,14.70
2022-10-12T13:08:42.355Z,14.60
2022-10-12T13:11:35.667Z,14.70
2022-10-12T13:14:15.359Z,14.80
2022-10-12T13:17:31.772Z,14.80
2022-10-12T13:19:58.700Z,15.00
2022-10-12T13:22:30.287Z,15.20
2022-10-12T13:25:02.623Z,15.30
2022-10-12T13:27:35.579Z,15.30
2022-10-12T13:30:09.537Z,15.30
2022-10-12T13:32:47.126Z,15.10
2022-10-12T13:35:22.972Z,15.10
2022-10-12T13:38:02.018Z,15.10
2022-10-12T13:40:32.259Z,15.00
2022-10-12T13:43:18.607Z,15.10
2022-10-12T13:45:47.042Z,15.20
2022-10-12T13:48:34.071Z,15.00
2022-10-12T13:51:24.876Z,15.10
2022-10-12T13:53:52.847Z,15.20
2022-10-12T13:56:24.068Z,15.10
2022-10-12T13:58:56.000Z,15.20
2022-10-12T14:01:24.032Z,15.10
2022-10-12T14:03:53.528Z,15.20
2022-10-12T14:06:27.913Z,15.20
2022-10-12T14:08:58.177Z,15.10
2022-10-12T14:11:27.399Z,15.00
2022-10-12T14:13:56.705Z,15.00
2022-10-12T14:16:24.849Z,15.00
2022-10-12T14:18:54.199Z,14.80
2022-10-12T14:21:23.929Z,14.70
2022-10-12T14:23:54.391Z,14.80
2022-10-12T14:26:30.041Z,14.80
2022-10-12T14:28:59.763Z,14.80
2022-10-12T14:31:52.096Z,14.90
2022-10-12T14:34:40.739Z,14.90
2022-10-12T14:37:29.748Z,14.90
2022-10-12T14:40:02.461Z,14.90
2022-10-12T14:42:35.530Z,14.90
2022-10-12T14:45:07.315Z,15.00
2022-10-12T14:47:39.666Z,15.00
2022-10-12T14:50:10.624Z,14.80
2022-10-12T14:52:43.168Z,14.70
2022-10-12T14:55:15.826Z,14.40
2022-10-12T14:57:43.955Z,14.40
2022-10-12T15:00:15.647Z,14.40
2022-10-12T15:02:44.518Z,14.40
2022-10-12T15:05:16.742Z,14.50
2022-10-12T15:07:46.822Z,14.50
2022-10-12T15:10:15.162Z,14.30
2022-10-12T15:12:43.670Z,14.10
2022-10-12T15:15:28.744Z,14.20
2022-10-12T15:17:57.405Z,14.20
2022-10-12T15:20:27.437Z,14.20
2022-10-12T15:22:55.479Z,14.20
2022-10-12T15:25:28.127Z,14.10
2022-10-12T15:27:56.094Z,14.10
2022-10-12T15:30:24.663Z,14.10
2022-10-12T15:32:52.718Z,14.00
2022-10-12T15:35:22.872Z,14.00
2022-10-12T15:37:52.964Z,13.90
2022-10-12T15:40:22.402Z,13.90
2022-10-12T15:42:50.796Z,13.90
2022-10-12T15:45:24.102Z,13.80
2022-10-12T15:47:53.411Z,13.70
2022-10-12T15:50:24.592Z,13.70
2022-10-12T15:52:54.377Z,13.50
2022-10-12T15:55:24.216Z,13.50
2022-10-12T15:57:52.773Z,13.30
2022-10-12T16:00:23.743Z,13.20
2022-10-12T16:02:51.814Z,13.00
2022-10-12T16:05:21.964Z,12.90
2022-10-12T16:07:50.301Z,12.80
2022-10-12T16:10:21.743Z,12.80
2022-10-12T16:12:51.744Z,12.70
2022-10-12T16:15:22.412Z,12.60
2022-10-12T16:17:50.613Z,12.50
2022-10-12T16:20:19.170Z,12.30
2022-10-12T16:22:47.242Z,12.20
2022-10-12T16:25:21.445Z,12.10
2022-10-12T16:27:53.661Z,12.00
2022-10-12T16:30:22.469Z,11.90
2022-10-12T16:32:50.955Z,11.70
2022-10-12T16:35:19.609Z,11.60
2022-10-12T16:37:47.821Z,11.50
2022-10-12T16:40:16.966Z,11.30
2022-10-12T16:42:46.371Z,11.20
2022-10-12T16:45:14.600Z,11.10
2022-10-12T16:47:43.194Z,11.00
2022-10-12T16:50:11.354Z,10.90
2022-10-12T16:52:39.523Z,10.80
2022-10-12T16:55:08.461Z,10.70
2022-10-12T16:57:36.475Z,10.70
2022-10-12T17:00:07.247Z,10.60
2022-10-12T17:02:36.329Z,10.60
2022-10-12T17:05:04.717Z,10.40
2022-10-12T17:07:33.083Z,10.30
2022-10-12T17:10:01.035Z,10.30
2022-10-12T17:12:29.726Z,10.20
2022-10-12T17:14:58.463Z,10.10
2022-10-12T17:17:28.891Z,9.90
2022-10-12T17:19:56.958Z,9.70
2022-10-12T17:22:24.960Z,9.60
2022-10-12T17:24:53.274Z,9.30
2022-10-12T17:27:21.371Z,9.30
2022-10-12T17:29:49.451Z,9.00
2022-10-12T17:32:18.536Z,9.00
2022-10-12T17:34:48.585Z,9.10
2022-10-12T17:37:16.913Z,9.20
2022-10-12T17:39:48.299Z,9.30
2022-10-12T17:42:16.685Z,9.20
2022-10-12T17:44:45.097Z,9.10
2022-10-12T17:47:13.079Z,9.00
2022-10-12T17:49:41.282Z,9.20
2022-10-12T17:52:10.733Z,9.20
2022-10-12T17:54:39.134Z,9.20
2022-10-12T17:57:07.303Z,9.20
2022-10-12T17:59:36.254Z,9.20
2022-10-12T18:02:09.194Z,9.20
2022-10-12T18:04:37.636Z,9.20
2022-10-12T18:07:08.135Z,9.10
2022-10-12T18:09:37.823Z,9.20
2022-10-12T18:12:05.990Z,9.10
2022-10-12T18:14:34.314Z,8.90
2022-10-12T18:17:02.290Z,8.70
2022-10-12T18:19:30.399Z,8.60
2022-10-12T18:21:58.977Z,8.70
2022-10-12T18:24:27.180Z,8.60
2022-10-12T18:26:56.677Z,8.70
2022-10-12T18:29:24.842Z,8.80
2022-10-12T18:31:53.589Z,8.70
2022-10-12T18:34:24.431Z,8.50
2022-10-12T18:36:53.309Z,8.50
2022-10-12T18:39:21.591Z,8.40
2022-10-12T18:41:52.758Z,8.50
2022-10-12T18:44:22.403Z,8.50
2022-10-12T18:46:50.640Z,8.50
2022-10-12T18:49:18.676Z,8.30
2022-10-12T18:51:49.662Z,8.10
2022-10-12T18:54:17.930Z,8.00
2022-10-12T18:56:46.284Z,7.90
2022-10-12T18:59:18.166Z,7.80
2022-10-12T19:01:48.083Z,7.70
2022-10-12T19:04:16.604Z,7.80
2022-10-12T19:06:44.791Z,7.80
2022-10-12T19:09:14.195Z,7.80
2022-10-12T19:11:42.323Z,7.80
2022-10-12T19:14:14.645Z,7.80
2022-10-12T19:16:43.523Z,7.90
2022-10-12T19:19:20.879Z,7.80
2022-10-12T19:21:49.872Z,7.80
2022-10-12T19:24:18.434Z,7.70
2022-10-12T19:26:46.580Z,7.70
2022-10-12T19:29:15.036Z,7.70
2022-10-12T19:31:46.282Z,7.70
2022-10-12T19:34:18.051Z,7.60
2022-10-12T19:36:46.701Z,7.30
2022-10-12T19:39:16.822Z,7.20
2022-10-12T19:41:45.508Z,7.30
2022-10-12T19:44:13.811Z,7.30
2022-10-12T19:46:47.113Z,7.30
2022-10-12T19:49:18.293Z,7.10
2022-10-12T19:51:46.414Z,7.10
2022-10-12T19:54:16.369Z,7.20
2022-10-12T19:56:44.407Z,7.30
2022-10-12T19:59:12.722Z,7.30
2022-10-12T20:01:40.933Z,7.30
2022-10-12T20:04:11.861Z,7.20
2022-10-12T20:06:42.048Z,7.20
2022-10-12T20:09:10.674Z,7.20
2022-10-12T20:11:38.766Z,7.10
2022-10-12T20:14:07.497Z,7.00
2022-10-12T20:16:35.903Z,6.90
2022-10-12T20:19:04.202Z,6.90
2022-10-12T20:21:32.320Z,6.90
2022-10-12T20:24:01.692Z,6.80
2022-10-12T20:26:29.861Z,6.70
2022-10-12T20:28:58.170Z,6.50
2022-10-12T20:31:27.960Z,6.40
2022-10-12T20:33:58.125Z,6.50
2022-10-12T20:36:28.067Z,6.30
2022-10-12T20:38:56.533Z,6.30
2022-10-12T20:41:26.432Z,6.30
2022-10-12T20:43:56.458Z,6.40
2022-10-12T20:46:24.759Z,6.50
2022-10-12T20:48:58.058Z,6.20
2022-10-12T20:51:29.088Z,6.10
2022-10-12T20:53:59.259Z,6.20
2022-10-12T20:56:29.227Z,6.30
2022-10-12T20:58:57.415Z,6.30
2022-10-12T21:01:26.521Z,6.20
2022-10-12T21:03:55.119Z,6.10
2022-10-12T21:06:23.860Z,6.10
2022-10-12T21:08:52.541Z,6.00
2022-10-12T21:11:21.026Z,5.90
2022-10-12T21:13:50.873Z,6.00
2022-10-12T21:16:19.121Z,5.90
2022-10-12T21:18:47.085Z,5.80
2022-10-12T21:21:17.105Z,5.80
2022-10-12T21:23:46.544Z,5.70
2022-10-12T21:26:16.511Z,5.70
2022-10-12T21:28:45.479Z,5.60
2022-10-12T21:31:15.568Z,5.70
2022-10-12T21:33:43.643Z,5.60
2022-10-12T21:36:13.778Z,5.70
2022-10-12T21:38:42.807Z,5.70
2022-10-12T21:41:12.399Z,5.70
2022-10-12T21:43:41.430Z,5.70
2022-10-12T21:46:11.855Z,5.60
2022-10-12T21:48:41.281Z,5.50
2022-10-12T21:51:10.109Z,5.40
2022-10-12T21:53:39.232Z,5.40
2022-10-12T21:56:08.491Z,5.20
2022-10-12T21:58:36.608Z,5.20
2022-10-12T22:01:06.220Z,5.10
2022-10-12T22:03:34.248Z,4.90
2022-10-12T22:06:04.147Z,4.80
2022-10-12T22:08:32.162Z,5.00
2022-10-12T22:11:05.534Z,5.10
2022-10-12T22:13:33.671Z,5.20
2022-10-12T22:16:02.676Z,5.10
2022-10-12T22:18:30.787Z,5.10
2022-10-12T22:20:58.937Z,5.20
2022-10-12T22:23:28.259Z,5.10
2022-10-12T22:26:00.301Z,5.00
2022-10-12T22:28:28.650Z,5.00
2022-10-12T22:30:56.786Z,4.90
2022-10-12T22:33:25.155Z,4.80
2022-10-12T22:35:54.610Z,4.80
2022-10-12T22:38:23.279Z,4.80
2022-10-12T22:40:59.905Z,4.80
2022-10-12T22:43:29.346Z,4.70
2022-10-12T22:45:57.657Z,4.70
2022-10-12T22:48:26.447Z,4.50
2022-10-12T22:50:55.075Z,4.50
2022-10-12T22:53:24.890Z,4.50
2022-10-12T22:56:00.631Z,4.40
2022-10-12T22:58:29.351Z,4.40
2022-10-12T23:01:03.144Z,4.40
2022-10-12T23:03:32.216Z,4.40
2022-10-12T23:06:00.760Z,4.30
2022-10-12T23:08:31.362Z,4.30
2022-10-12T23:11:05.747Z,4.30
2022-10-12T23:13:34.430Z,4.40
2022-10-12T23:16:03.423Z,4.30
2022-10-12T23:18:32.042Z,4.40
2022-10-12T23:21:00.000Z,4.50
2022-10-12T23:23:27.929Z,4.40
2022-10-12T23:26:05.627Z,4.20
2022-10-12T23:28:34.111Z,4.00
2022-10-12T23:31:04.910Z,3.90
2022-10-12T23:33:33.118Z,3.90
2022-10-12T23:36:03.187Z,4.00
2022-10-12T23:38:32.595Z,4.00
2022-10-12T23:41:00.606Z,4.10
2022-10-12T23:43:30.488Z,4.10
2022-10-12T23:45:58.544Z,4.10
2022-10-12T23:48:27.489Z,4.10
2022-10-12T23:50:55.603Z,4.10
2022-10-12T23:53:25.238Z,4.10
2022-10-12T23:55:54.201Z,4.10
2022-10-12T23:58:22.775Z,4.10
